Time;durP1;ratioP1;P1;durP2;ratioP2;P2;SDS_P1;SDS_P2;PMS_P1;PMS_P2;Temp;Humidity;BMP_temperature;BMP_pressure;BME280_temperature;BME280_humidity;BME280_pressure;Samples;Min_cycle;Max_cycle;Signal;HPM_P1;HPM_P2
2021/07/08 00:00:18;;;;;;;;;;;;;;;16.50;100.00;96196.31;1053609;28;19916;-69
2021/07/08 00:00:49;;;;;;;;;;;;;;;16.50;100.00;96199.00;1055313;28;19913;-69
2021/07/08 00:01:19;;;;;;;;;;;;;;;16.50;100.00;96193.59;1057323;28;19912;-69
2021/07/08 00:01:49;;;;;;;;;;;;;;;16.49;100.00;96198.22;1057272;28;19981;-69
2021/07/08 00:02:20;;;;;;;;;;;;;;;16.50;100.00;96196.31;1057500;28;19973;-70
2021/07/08 00:02:50;;;;;;;;;;;;;;;16.49;100.00;96200.09;1054900;28;19922;-69
2021/07/08 00:03:20;;;;;;;;;;;;;;;16.49;100.00;96198.22;1052646;28;19908;-69
2021/07/08 00:03:51;;;;;;;;;;;;;;;16.49;100.00;96192.81;1053137;28;19920;-69
2021/07/08 00:04:21;;;;;;;;;;;;;;;16.51;100.00;96196.00;1048928;28;19955;-69
2021/07/08 00:04:51;;;;;;;;;;;;;;;16.48;100.00;96188.53;1047558;28;20285;-71
2021/07/08 00:05:22;;;;;;;;;;;;;;;16.47;100.00;96194.19;1050167;28;19955;-68
2021/07/08 00:05:53;;;;;;;;;;;;;;;16.45;100.00;96182.94;1049735;28;20042;-70
2021/07/08 00:06:24;;;;;;;;;;;;;;;16.46;100.00;96188.00;1053391;28;19912;-69
2021/07/08 00:06:54;;;;;;;;;;;;;;;16.47;100.00;96181.50;1053401;28;19912;-68
2021/07/08 00:07:24;;;;;;;;;;;;;;;16.48;100.00;96183.13;1053411;28;19908;-69
2021/07/08 00:07:58;;;;;;;;;;;;;;;16.50;100.00;96180.91;1054181;28;19942;-70
2021/07/08 00:08:28;;;;;;;;;;;;;;;16.50;100.00;96180.13;1057622;28;19919;-70
2021/07/08 00:08:58;;;;;;;;;;;;;;;16.48;100.00;96175.03;1055800;28;20368;-70
2021/07/08 00:09:29;;;;;;;;;;;;;;;16.47;100.00;96176.13;1049418;28;19962;-70
2021/07/08 00:09:59;;;;;;;;;;;;;;;16.46;100.00;96174.53;1052801;28;20015;-70
2021/07/08 00:10:31;;;;;;;;;;;;;;;16.48;100.00;96177.72;1057839;28;19912;-70
2021/07/08 00:11:01;;;;;;;;;;;;;;;16.47;100.00;96170.72;1057636;28;19941;-68
2021/07/08 00:11:32;;;;;;;;;;;;;;;16.46;100.00;96174.53;1057765;28;19972;-70
2021/07/08 00:12:02;;;;;;;;;;;;;;;16.48;100.00;96172.34;1055574;28;19918;-68
2021/07/08 00:12:32;;;;;;;;;;;;;;;16.48;100.00;96171.50;1053621;28;19935;-68
2021/07/08 00:13:03;;;;;;;;;;;;;;;16.47;100.00;96168.03;1053524;28;19958;-69
2021/07/08 00:13:34;;;;;;;;;;;;;;;16.46;100.00;96171.81;1052819;28;19917;-69
2021/07/08 00:14:05;;;;;;;;;;;;;;;16.46;100.00;96177.22;1055923;28;20418;-69
2021/07/08 00:14:35;;;;;;;;;;;;;;;16.47;100.00;96172.63;1057780;28;19951;-69
2021/07/08 00:15:09;;;;;;;;;;;;;;;16.45;100.00;96181.03;1057739;28;19915;-69
2021/07/08 00:15:40;;;;;;;;;;;;;;;16.47;100.00;96168.03;1057850;28;20386;-68
2021/07/08 00:16:10;;;;;;;;;;;;;;;16.45;100.00;96175.63;1049860;28;19913;-69
2021/07/08 00:16:40;;;;;;;;;;;;;;;16.48;100.00;96176.91;1049083;28;19952;-69
2021/07/08 00:17:10;;;;;;;;;;;;;;;16.47;100.00;96175.31;1049065;28;19920;-69
2021/07/08 00:17:41;;;;;;;;;;;;;;;16.46;100.00;96174.53;1049124;28;19919;-70
2021/07/08 00:18:11;;;;;;;;;;;;;;;16.45;100.00;96182.94;1056767;28;20206;-69
2021/07/08 00:18:41;;;;;;;;;;;;;;;16.47;100.00;96183.41;1057739;28;19911;-69
2021/07/08 00:19:12;;;;;;;;;;;;;;;16.48;100.00;96183.13;1057706;28;19954;-69
2021/07/08 00:19:42;;;;;;;;;;;;;;;16.47;100.00;96181.50;1057781;28;19912;-69
2021/07/08 00:20:13;;;;;;;;;;;;;;;16.48;100.00;96176.91;1046796;28;20293;-69
2021/07/08 00:20:46;;;;;;;;;;;;;;;16.46;100.00;96182.63;1044916;28;19913;-69
2021/07/08 00:21:16;;;;;;;;;;;;;;;16.46;100.00;96182.63;1044783;28;19946;-71
2021/07/08 00:21:46;;;;;;;;;;;;;;;16.45;100.00;96186.41;1045417;28;19962;-68
2021/07/08 00:22:17;;;;;;;;;;;;;;;16.44;100.00;96192.91;1048881;28;19935;-69
2021/07/08 00:22:47;;;;;;;;;;;;;;;16.42;100.00;96192.41;1049157;28;19912;-69
2021/07/08 00:23:18;;;;;;;;;;;;;;;16.43;100.00;96191.31;1048958;28;19973;-69
2021/07/08 00:23:48;;;;;;;;;;;;;;;16.45;100.00;96191.03;1049263;28;19909;-69
2021/07/08 00:24:18;;;;;;;;;;;;;;;16.44;100.00;96192.13;1057738;28;19991;-69
2021/07/08 00:24:48;;;;;;;;;;;;;;;16.43;100.00;96191.31;1057791;28;20409;-69
2021/07/08 00:25:23;;;;;;;;;;;;;;;16.43;100.00;96191.31;1053207;28;19919;-69
2021/07/08 00:25:53;;;;;;;;;;;;;;;16.43;100.00;96194.03;1052289;28;20441;-69
2021/07/08 00:26:24;;;;;;;;;;;;;;;16.44;100.00;96206.41;1049057;28;19917;-69
2021/07/08 00:26:55;;;;;;;;;;;;;;;16.45;100.00;96199.09;1049657;28;19913;-69
2021/07/08 00:27:25;;;;;;;;;;;;;;;16.45;100.00;96202.59;1048906;28;19967;-69
2021/07/08 00:27:55;;;;;;;;;;;;;;;16.46;100.00;96206.09;1045890;28;19943;-69
2021/07/08 00:28:25;;;;;;;;;;;;;;;16.46;100.00;96208.78;1046848;28;19934;-70
2021/07/08 00:28:56;;;;;;;;;;;;;;;16.48;100.00;96218.19;1044546;28;19917;-69
2021/07/08 00:29:26;;;;;;;;;;;;;;;16.48;100.00;96212.81;1049041;28;20079;-69
2021/07/08 00:29:56;;;;;;;;;;;;;;;16.49;100.00;96224.38;1049335;28;19912;-69
2021/07/08 00:30:27;;;;;;;;;;;;;;;16.50;100.00;96220.59;1049324;28;20395;-69
2021/07/08 00:30:57;;;;;;;;;;;;;;;16.49;100.00;96225.19;1053183;28;19966;-69
2021/07/08 00:31:27;;;;;;;;;;;;;;;16.49;100.00;96227.09;1053148;28;19923;-69
2021/07/08 00:31:57;;;;;;;;;;;;;;;16.49;100.00;96227.88;1053144;28;19916;-69
2021/07/08 00:32:28;;;;;;;;;;;;;;;16.49;100.00;96235.19;1053138;28;20454;-69
2021/07/08 00:32:58;;;;;;;;;;;;;;;16.49;100.00;96235.19;1049151;28;19921;-68
2021/07/08 00:33:28;;;;;;;;;;;;;;;16.50;100.00;96234.88;1048827;28;19920;-69
2021/07/08 00:34:01;;;;;;;;;;;;;;;16.50;100.00;96234.88;1048957;28;20320;-69
2021/07/08 00:34:31;;;;;;;;;;;;;;;16.49;100.00;96230.56;1049036;28;20005;-69
2021/07/08 00:35:02;;;;;;;;;;;;;;;16.49;100.00;96225.19;1049020;28;20323;-69
2021/07/08 00:35:32;;;;;;;;;;;;;;;16.49;100.00;96227.88;1049362;28;19912;-69
2021/07/08 00:36:03;;;;;;;;;;;;;;;16.48;100.00;96217.38;1053125;28;20003;-69
2021/07/08 00:36:33;;;;;;;;;;;;;;;16.50;100.00;96215.19;1053143;28;20049;-70
2021/07/08 00:37:03;;;;;;;;;;;;;;;16.49;100.00;96208.19;1053207;28;20407;-69
2021/07/08 00:37:34;;;;;;;;;;;;;;;16.47;100.00;96211.19;1057398;28;19916;-69
2021/07/08 00:38:04;;;;;;;;;;;;;;;16.45;100.00;96205.31;1053821;28;20354;-69
2021/07/08 00:38:34;;;;;;;;;;;;;;;16.45;100.00;96199.91;1057743;28;19911;-69
2021/07/08 00:39:04;;;;;;;;;;;;;;;16.46;100.00;96200.69;1053078;28;19908;-69
2021/07/08 00:39:35;;;;;;;;;;;;;;;16.45;100.00;96205.31;1040695;28;19913;-69
2021/07/08 00:40:06;;;;;;;;;;;;;;;16.45;100.00;96207.19;1040732;28;19909;-69
2021/07/08 00:40:36;;;;;;;;;;;;;;;16.45;100.00;96212.59;1040872;28;20286;-69
2021/07/08 00:41:06;;;;;;;;;;;;;;;16.45;100.00;96209.91;1041121;28;20008;-69
2021/07/08 00:41:37;;;;;;;;;;;;;;;16.44;100.00;96217.19;1053258;28;19943;-70
2021/07/08 00:42:07;;;;;;;;;;;;;;;16.45;100.00;96213.41;1053052;28;19908;-70
2021/07/08 00:42:38;;;;;;;;;;;;;;;16.44;100.00;96211.81;1053241;28;19951;-71
2021/07/08 00:43:08;;;;;;;;;;;;;;;16.43;100.00;96214.78;1057720;28;19990;-71
2021/07/08 00:43:38;;;;;;;;;;;;;;;16.42;100.00;96210.50;1054246;28;19992;-71
2021/07/08 00:44:09;;;;;;;;;;;;;;;16.43;100.00;96212.09;1049285;28;19938;-71
2021/07/08 00:44:39;;;;;;;;;;;;;;;16.40;100.00;96212.69;1049256;28;19912;-71
2021/07/08 00:45:10;;;;;;;;;;;;;;;16.40;100.00;96215.41;1049316;28;19993;-71
2021/07/08 00:45:40;;;;;;;;;;;;;;;16.38;100.00;96210.31;1049352;28;19999;-71
2021/07/08 00:46:11;;;;;;;;;;;;;;;16.36;100.00;96207.91;1049278;28;20021;-71
2021/07/08 00:46:41;;;;;;;;;;;;;;;16.33;100.00;96208.53;1049329;28;19919;-71
2021/07/08 00:47:11;;;;;;;;;;;;;;;16.33;100.00;96221.22;1048859;28;20261;-71
2021/07/08 00:47:41;;;;;;;;;;;;;;;16.33;100.00;96213.91;1052975;28;19912;-70
2021/07/08 00:48:12;;;;;;;;;;;;;;;16.33;100.00;96208.53;1052975;28;19909;-71
2021/07/08 00:48:42;;;;;;;;;;;;;;;16.33;100.00;96210.41;1057594;27;19912;-71
2021/07/08 00:49:14;;;;;;;;;;;;;;;16.33;100.00;96207.72;1061671;27;19995;-71
2021/07/08 00:49:44;;;;;;;;;;;;;;;16.33;100.00;96205.03;1053183;28;19912;-71
2021/07/08 00:50:15;;;;;;;;;;;;;;;16.32;100.00;96209.59;1053153;28;19905;-71
2021/07/08 00:50:48;;;;;;;;;;;;;;;16.33;100.00;96205.81;1053175;28;19908;-71
2021/07/08 00:51:18;;;;;;;;;;;;;;;16.32;100.00;96203.41;1053859;28;19915;-71
2021/07/08 00:51:49;;;;;;;;;;;;;;;16.34;100.00;96206.63;1057720;28;19911;-71
2021/07/08 00:52:19;;;;;;;;;;;;;;;16.33;100.00;96208.53;1057654;28;20374;-71
2021/07/08 00:52:49;;;;;;;;;;;;;;;16.33;100.00;96210.41;1057679;28;20012;-71
2021/07/08 00:53:20;;;;;;;;;;;;;;;16.32;100.00;96198.81;1057564;28;19903;-71
2021/07/08 00:53:50;;;;;;;;;;;;;;;16.32;100.00;96204.19;1050795;28;20293;-71
2021/07/08 00:54:20;;;;;;;;;;;;;;;16.32;100.00;96204.19;1048969;28;19916;-72
2021/07/08 00:54:51;;;;;;;;;;;;;;;16.32;100.00;96203.41;1048944;28;19982;-71
2021/07/08 00:55:21;;;;;;;;;;;;;;;16.30;100.00;96206.41;1048952;28;19908;-71
2021/07/08 00:55:58;;;;;;;;;;;;;;;16.32;100.00;96206.91;1049020;28;20574;-71
2021/07/08 00:56:33;;;;;;;;;;;;;;;16.31;100.00;96207.22;1049991;28;20365;-70
2021/07/08 00:57:03;;;;;;;;;;;;;;;16.30;100.00;96201.03;1048910;28;19939;-70
2021/07/08 00:57:34;;;;;;;;;;;;;;;16.30;100.00;96206.41;1048973;28;20356;-71
2021/07/08 00:58:05;;;;;;;;;;;;;;;16.32;100.00;96203.41;1044762;28;20305;-70
2021/07/08 00:58:35;;;;;;;;;;;;;;;16.31;100.00;96204.50;1044940;28;19909;-70
2021/07/08 00:59:06;;;;;;;;;;;;;;;16.30;100.00;96200.22;1048901;28;19997;-72
2021/07/08 00:59:43;;;;;;;;;;;;;;;16.30;100.00;96200.22;1049169;28;19909;-70
2021/07/08 01:00:13;;;;;;;;;;;;;;;16.30;100.00;96201.03;1048983;28;19915;-70
2021/07/08 01:00:43;;;;;;;;;;;;;;;16.30;100.00;96211.00;1048922;28;20361;-71
2021/07/08 01:01:14;;;;;;;;;;;;;;;16.30;100.00;96201.03;1049431;28;20404;-71
2021/07/08 01:01:44;;;;;;;;;;;;;;;16.30;100.00;96198.31;1053119;28;20014;-71
2021/07/08 01:02:15;;;;;;;;;;;;;;;16.32;100.00;96204.19;1057715;28;19926;-71
2021/07/08 01:02:45;;;;;;;;;;;;;;;16.32;100.00;96196.13;1052988;28;20349;-71
2021/07/08 01:03:15;;;;;;;;;;;;;;;16.34;100.00;96201.22;1048931;28;19961;-71
2021/07/08 01:03:46;;;;;;;;;;;;;;;16.34;100.00;96199.31;1045677;28;19956;-70
2021/07/08 01:04:16;;;;;;;;;;;;;;;16.33;100.00;96191.53;1048877;28;19919;-70
2021/07/08 01:04:47;;;;;;;;;;;;;;;16.31;100.00;96199.13;1048846;28;19923;-71
2021/07/08 01:05:21;;;;;;;;;;;;;;;16.35;100.00;96203.59;1044743;28;20031;-70
2021/07/08 01:05:53;;;;;;;;;;;;;;;16.32;100.00;96198.81;1044693;28;19956;-70
2021/07/08 01:06:24;;;;;;;;;;;;;;;16.34;100.00;96193.13;1049947;28;19985;-71
2021/07/08 01:06:54;;;;;;;;;;;;;;;16.34;100.00;96201.22;1053038;28;19912;-70
2021/07/08 01:07:24;;;;;;;;;;;;;;;16.32;100.00;96193.41;1048816;28;19908;-71
2021/07/08 01:07:55;;;;;;;;;;;;;;;16.34;100.00;96206.63;1048875;28;19948;-70
2021/07/08 01:08:25;;;;;;;;;;;;;;;16.33;100.00;96202.34;1044809;28;19972;-70
2021/07/08 01:08:55;;;;;;;;;;;;;;;16.34;100.00;96206.63;1047885;28;19929;-70
2021/07/08 01:09:25;;;;;;;;;;;;;;;16.34;100.00;96201.22;1053008;28;20377;-70
2021/07/08 01:09:56;;;;;;;;;;;;;;;16.35;100.00;96209.00;1053110;28;19908;-70
2021/07/08 01:10:27;;;;;;;;;;;;;;;16.36;100.00;96205.19;1044681;28;19908;-70
2021/07/08 01:10:57;;;;;;;;;;;;;;;16.36;100.00;96207.91;1040620;28;19916;-70
2021/07/08 01:11:27;;;;;;;;;;;;;;;16.36;100.00;96202.50;1044687;28;19916;-70
2021/07/08 01:11:58;;;;;;;;;;;;;;;16.37;100.00;96198.69;1040735;28;19909;-70
2021/07/08 01:12:28;;;;;;;;;;;;;;;16.35;100.00;96205.50;1036591;28;19912;-70
2021/07/08 01:12:58;;;;;;;;;;;;;;;16.37;100.00;96200.59;1040653;28;19916;-70
2021/07/08 01:13:28;;;;;;;;;;;;;;;16.39;100.00;96201.13;1044615;28;19970;-70
2021/07/08 01:13:59;;;;;;;;;;;;;;;16.38;100.00;96199.53;1052266;28;19924;-70
2021/07/08 01:14:29;;;;;;;;;;;;;;;16.38;100.00;96200.31;1048868;28;20314;-70
2021/07/08 01:14:59;;;;;;;;;;;;;;;16.38;100.00;96199.53;1048456;28;19916;-71
2021/07/08 01:15:30;;;;;;;;;;;;;;;16.38;100.00;96203.03;1040485;28;19917;-71
2021/07/08 01:16:00;;;;;;;;;;;;;;;16.38;100.00;96197.63;1044633;28;20317;-71
2021/07/08 01:16:30;;;;;;;;;;;;;;;16.38;100.00;96197.63;1048852;28;19918;-71
2021/07/08 01:17:01;;;;;;;;;;;;;;;16.40;100.00;96188.44;1048862;28;19949;-70
2021/07/08 01:17:31;;;;;;;;;;;;;;;16.39;100.00;96190.31;1048719;28;20388;-71
2021/07/08 01:18:01;;;;;;;;;;;;;;;16.41;100.00;96190.81;1044653;28;20384;-71
2021/07/08 01:18:32;;;;;;;;;;;;;;;16.39;100.00;96190.31;1044697;28;19913;-71
2021/07/08 01:19:02;;;;;;;;;;;;;;;16.40;100.00;96191.91;1048770;28;19913;-70
2021/07/08 01:19:34;;;;;;;;;;;;;;;16.40;100.00;96191.91;1048744;28;19913;-71
2021/07/08 01:20:05;;;;;;;;;;;;;;;16.36;100.00;96188.22;1048789;28;20404;-69
2021/07/08 01:20:36;;;;;;;;;;;;;;;16.36;100.00;96197.09;1048417;28;19909;-70
2021/07/08 01:21:18;;;;;;;;;;;;;;;16.37;100.00;96198.69;1044740;28;19920;-70
2021/07/08 01:21:48;;;;;;;;;;;;;;;16.37;100.00;96195.22;1046485;28;20007;-69
2021/07/08 01:22:19;;;;;;;;;;;;;;;16.34;100.00;96196.63;1054855;28;19912;-69
2021/07/08 01:22:49;;;;;;;;;;;;;;;16.34;100.00;96202.03;1057260;28;19979;-69
2021/07/08 01:23:19;;;;;;;;;;;;;;;16.34;100.00;96196.63;1053109;28;20285;-69
2021/07/08 01:23:49;;;;;;;;;;;;;;;16.35;100.00;96203.59;1052858;28;19920;-69
2021/07/08 01:24:20;;;;;;;;;;;;;;;16.34;100.00;96209.31;1042325;28;19917;-71
2021/07/08 01:24:50;;;;;;;;;;;;;;;16.33;100.00;96202.34;1040543;28;19968;-69
2021/07/08 01:25:20;;;;;;;;;;;;;;;16.34;100.00;96201.22;1036495;28;19925;-69
2021/07/08 01:25:51;;;;;;;;;;;;;;;16.36;100.00;96201.72;1032288;28;20270;-69
2021/07/08 01:26:21;;;;;;;;;;;;;;;16.36;100.00;96202.50;1032408;28;19969;-71
2021/07/08 01:26:52;;;;;;;;;;;;;;;16.37;100.00;96209.50;1036436;28;19914;-69
2021/07/08 01:27:22;;;;;;;;;;;;;;;16.37;100.00;96211.38;1040530;28;19917;-69
2021/07/08 01:27:52;;;;;;;;;;;;;;;16.37;100.00;96211.38;1040435;28;20401;-69
2021/07/08 01:28:23;;;;;;;;;;;;;;;16.38;100.00;96216.50;1032494;28;19925;-69
2021/07/08 01:28:53;;;;;;;;;;;;;;;16.36;100.00;96215.19;1036352;28;20302;-69
2021/07/08 01:29:23;;;;;;;;;;;;;;;16.38;100.00;96221.09;1040476;28;19918;-69
2021/07/08 01:29:54;;;;;;;;;;;;;;;16.40;100.00;96207.31;1040503;28;19992;-69
2021/07/08 01:30:25;;;;;;;;;;;;;;;16.39;100.00;96214.59;1044678;28;19943;-69
2021/07/08 01:30:55;;;;;;;;;;;;;;;16.38;100.00;96213.00;1044643;28;19913;-71
2021/07/08 01:31:25;;;;;;;;;;;;;;;16.37;100.00;96206.78;1044697;28;19917;-69
2021/07/08 01:31:55;;;;;;;;;;;;;;;16.37;100.00;96204.09;1044677;28;19988;-70
2021/07/08 01:32:26;;;;;;;;;;;;;;;16.37;100.00;96203.31;1044665;28;19917;-69
2021/07/08 01:32:56;;;;;;;;;;;;;;;16.38;100.00;96191.44;1048555;28;19916;-70
2021/07/08 01:33:27;;;;;;;;;;;;;;;16.37;100.00;96197.91;1048659;28;19917;-70
2021/07/08 01:33:57;;;;;;;;;;;;;;;16.35;100.00;96192.03;1048784;28;20014;-70
2021/07/08 01:34:27;;;;;;;;;;;;;;;16.34;100.00;96185.84;1040234;28;20306;-70
2021/07/08 01:34:57;;;;;;;;;;;;;;;16.35;100.00;96183.94;1035304;28;19929;-70
2021/07/08 01:35:28;;;;;;;;;;;;;;;16.36;100.00;96182.84;1040340;28;19940;-70
2021/07/08 01:35:59;;;;;;;;;;;;;;;16.35;100.00;96173.94;1040559;28;19942;-70
2021/07/08 01:36:29;;;;;;;;;;;;;;;16.37;100.00;96179.03;1040400;28;19917;-70
2021/07/08 01:37:00;;;;;;;;;;;;;;;16.35;100.00;96173.94;1040593;28;19956;-70
2021/07/08 01:37:30;;;;;;;;;;;;;;;16.35;100.00;96168.56;1040636;28;19919;-69
2021/07/08 01:38:00;;;;;;;;;;;;;;;16.36;100.00;96161.25;1036258;28;19913;-70
2021/07/08 01:38:30;;;;;;;;;;;;;;;16.37;100.00;96162.84;1036319;28;19963;-70
2021/07/08 01:39:01;;;;;;;;;;;;;;;16.35;100.00;96156.97;1036347;28;19996;-70
2021/07/08 01:39:31;;;;;;;;;;;;;;;16.36;100.00;96153.97;1036526;28;19987;-70
2021/07/08 01:40:02;;;;;;;;;;;;;;;16.36;100.00;96150.47;1044691;28;20420;-70
2021/07/08 01:40:32;;;;;;;;;;;;;;;16.35;100.00;96155.06;1044707;28;20357;-70
2021/07/08 01:41:03;;;;;;;;;;;;;;;16.34;100.00;96142.69;1044680;28;19909;-70
2021/07/08 01:41:33;;;;;;;;;;;;;;;16.34;100.00;96144.59;1044691;28;19909;-70
2021/07/08 01:42:03;;;;;;;;;;;;;;;16.35;100.00;96144.28;1040600;28;20382;-70
2021/07/08 01:42:34;;;;;;;;;;;;;;;16.32;100.00;96141.38;1040572;28;20031;-70
2021/07/08 01:43:04;;;;;;;;;;;;;;;16.33;100.00;96132.22;1040544;28;19948;-70
2021/07/08 01:43:37;;;;;;;;;;;;;;;16.32;100.00;96138.69;1040313;28;19913;-70
2021/07/08 01:44:07;;;;;;;;;;;;;;;16.33;100.00;96124.13;1044675;28;19921;-70
2021/07/08 01:44:38;;;;;;;;;;;;;;;16.32;100.00;96127.88;1040862;28;19909;-70
2021/07/08 01:45:08;;;;;;;;;;;;;;;16.32;100.00;96127.88;1048494;28;20011;-70
2021/07/08 01:45:38;;;;;;;;;;;;;;;16.31;100.00;96123.59;1048256;28;19924;-70
2021/07/08 01:46:09;;;;;;;;;;;;;;;16.30;100.00;96125.50;1048818;28;19923;-70
2021/07/08 01:46:40;;;;;;;;;;;;;;;16.29;100.00;96123.13;1052823;28;19919;-70
2021/07/08 01:47:11;;;;;;;;;;;;;;;16.27;100.00;96123.41;1048873;28;20003;-70
2021/07/08 01:47:43;;;;;;;;;;;;;;;16.25;100.00;96128.31;1052982;28;20357;-71
2021/07/08 01:48:13;;;;;;;;;;;;;;;16.25;100.00;96124.81;1052978;28;20391;-71
2021/07/08 01:48:44;;;;;;;;;;;;;;;16.25;100.00;96132.91;1052592;28;19934;-71
2021/07/08 01:49:14;;;;;;;;;;;;;;;16.23;100.00;96124.34;1048810;28;19924;-72
2021/07/08 01:49:44;;;;;;;;;;;;;;;16.23;100.00;96132.44;1048992;28;19908;-72
2021/07/08 01:50:15;;;;;;;;;;;;;;;16.22;100.00;96137.00;1048761;28;19970;-72
2021/07/08 01:50:46;;;;;;;;;;;;;;;16.21;100.00;96140.00;1048751;28;19919;-72
2021/07/08 01:51:29;;;;;;;;;;;;;;;16.18;100.00;96136.03;1052961;28;19923;-71
2021/07/08 01:51:59;;;;;;;;;;;;;;;16.18;100.00;96144.13;1050613;28;20008;-72
2021/07/08 01:52:30;;;;;;;;;;;;;;;16.19;100.00;96145.72;1048687;28;19912;-72
2021/07/08 01:53:00;;;;;;;;;;;;;;;16.20;100.00;96143.81;1042824;28;19921;-72
2021/07/08 01:53:30;;;;;;;;;;;;;;;16.20;100.00;96152.69;1040520;28;20286;-72
2021/07/08 01:54:01;;;;;;;;;;;;;;;16.21;100.00;96156.97;1048758;28;19913;-71
2021/07/08 01:54:31;;;;;;;;;;;;;;;16.20;100.00;96151.91;1052341;28;19951;-72
2021/07/08 01:55:01;;;;;;;;;;;;;;;16.19;100.00;96153.78;1051940;28;19927;-71
2021/07/08 01:55:32;;;;;;;;;;;;;;;16.19;100.00;96159.19;1055634;28;20029;-71
2021/07/08 01:56:02;;;;;;;;;;;;;;;16.19;100.00;96163.78;1048678;28;19913;-71
2021/07/08 01:56:33;;;;;;;;;;;;;;;16.20;100.00;96157.28;1048810;28;19912;-71
2021/07/08 01:57:03;;;;;;;;;;;;;;;16.20;100.00;96159.97;1046726;28;19958;-71
2021/07/08 01:57:34;;;;;;;;;;;;;;;16.21;100.00;96165.06;1044541;28;19951;-71
2021/07/08 01:58:04;;;;;;;;;;;;;;;16.23;100.00;96168.28;1036218;28;20382;-70
2021/07/08 01:58:34;;;;;;;;;;;;;;;16.23;100.00;96168.28;1036335;28;19913;-71
2021/07/08 01:59:05;;;;;;;;;;;;;;;16.24;100.00;96164.47;1040372;28;19909;-71
2021/07/08 01:59:35;;;;;;;;;;;;;;;16.24;100.00;96169.06;1044761;28;19908;-71
2021/07/08 02:00:06;;;;;;;;;;;;;;;16.25;100.00;96171.47;1053214;28;19955;-71
2021/07/08 02:00:36;;;;;;;;;;;;;;;16.24;100.00;96166.38;1048670;28;19962;-71
2021/07/08 02:01:06;;;;;;;;;;;;;;;16.24;100.00;96169.06;1044485;28;20470;-71
2021/07/08 02:01:37;;;;;;;;;;;;;;;16.22;100.00;96166.66;1044493;28;19950;-71
2021/07/08 02:02:08;;;;;;;;;;;;;;;16.22;100.00;96169.34;1040499;28;20031;-71
2021/07/08 02:02:39;;;;;;;;;;;;;;;16.22;100.00;96171.25;1032376;28;20487;-71
2021/07/08 02:03:09;;;;;;;;;;;;;;;16.21;100.00;96170.47;1040578;28;19913;-71
2021/07/08 02:03:39;;;;;;;;;;;;;;;16.21;100.00;96169.66;1044444;28;19915;-71
2021/07/08 02:04:10;;;;;;;;;;;;;;;16.21;100.00;96170.47;1044573;28;19948;-71
2021/07/08 02:04:40;;;;;;;;;;;;;;;16.21;100.00;96173.16;1048619;28;19915;-71
2021/07/08 02:05:10;;;;;;;;;;;;;;;16.21;100.00;96170.47;1044582;28;19912;-71
2021/07/08 02:05:40;;;;;;;;;;;;;;;16.21;100.00;96169.66;1044568;28;20006;-71
2021/07/08 02:06:11;;;;;;;;;;;;;;;16.20;100.00;96165.38;1048752;28;19917;-71
2021/07/08 02:06:41;;;;;;;;;;;;;;;16.18;100.00;96168.38;1053186;28;20338;-71
2021/07/08 02:07:11;;;;;;;;;;;;;;;16.19;100.00;96171.88;1051743;28;19967;-71
2021/07/08 02:07:42;;;;;;;;;;;;;;;16.19;100.00;96169.97;1048983;28;19919;-71
2021/07/08 02:08:12;;;;;;;;;;;;;;;16.18;100.00;96165.69;1048970;28;19901;-71
2021/07/08 02:08:42;;;;;;;;;;;;;;;16.19;100.00;96172.66;1044528;28;19912;-71
2021/07/08 02:09:12;;;;;;;;;;;;;;;16.20;100.00;96173.47;1040317;28;19917;-71
2021/07/08 02:09:43;;;;;;;;;;;;;;;16.19;100.00;96171.88;1036302;28;19909;-72
2021/07/08 02:10:14;;;;;;;;;;;;;;;16.21;100.00;96175.06;1036350;28;19905;-72
2021/07/08 02:10:44;;;;;;;;;;;;;;;16.20;100.00;96170.78;1040564;28;19913;-71
2021/07/08 02:11:14;;;;;;;;;;;;;;;16.20;100.00;96178.84;1044581;28;19913;-69
2021/07/08 02:11:44;;;;;;;;;;;;;;;16.18;100.00;96181.06;1048679;28;20381;-70
2021/07/08 02:12:15;;;;;;;;;;;;;;;16.19;100.00;96180.75;1052892;28;19957;-70
2021/07/08 02:12:45;;;;;;;;;;;;;;;16.19;100.00;96174.56;1052837;28;19915;-71
2021/07/08 02:13:15;;;;;;;;;;;;;;;16.18;100.00;96183.75;1052822;28;20357;-70
2021/07/08 02:13:46;;;;;;;;;;;;;;;16.19;100.00;96188.06;1052750;28;19991;-70
2021/07/08 02:14:16;;;;;;;;;;;;;;;16.16;100.00;96184.03;1048867;28;19912;-70
2021/07/08 02:14:46;;;;;;;;;;;;;;;16.15;100.00;96178.97;1049007;28;19916;-71
2021/07/08 02:15:16;;;;;;;;;;;;;;;16.15;100.00;96182.44;1048976;28;20269;-72
2021/07/08 02:15:47;;;;;;;;;;;;;;;16.14;100.00;96175.47;1052608;28;20353;-71
2021/07/08 02:16:17;;;;;;;;;;;;;;;16.15;100.00;96182.44;1052839;28;19912;-69
2021/07/08 02:16:47;;;;;;;;;;;;;;;16.15;100.00;96179.75;1052858;28;19935;-71
2021/07/08 02:17:17;;;;;;;;;;;;;;;16.15;100.00;96187.03;1052730;28;20399;-71
2021/07/08 02:17:48;;;;;;;;;;;;;;;16.13;100.00;96190.06;1051128;28;19920;-71
2021/07/08 02:18:18;;;;;;;;;;;;;;;16.13;100.00;96195.44;1053026;28;19916;-71
2021/07/08 02:18:48;;;;;;;;;;;;;;;16.11;100.00;96195.72;1053151;28;19970;-71
2021/07/08 02:19:19;;;;;;;;;;;;;;;16.11;100.00;96198.41;1053118;28;19919;-71
2021/07/08 02:19:49;;;;;;;;;;;;;;;16.10;100.00;96201.44;1053159;28;19920;-71
2021/07/08 02:20:19;;;;;;;;;;;;;;;16.10;100.00;96199.53;1053115;28;19962;-71
2021/07/08 02:20:50;;;;;;;;;;;;;;;16.10;100.00;96196.81;1053057;28;19923;-71
2021/07/08 02:21:20;;;;;;;;;;;;;;;16.10;100.00;96207.63;1053174;28;19915;-71
2021/07/08 02:21:50;;;;;;;;;;;;;;;16.12;100.00;96210.00;1053151;28;19948;-71
2021/07/08 02:22:21;;;;;;;;;;;;;;;16.11;100.00;96208.41;1053078;28;20280;-71
2021/07/08 02:22:51;;;;;;;;;;;;;;;16.09;100.00;96202.53;1053100;28;19965;-71
2021/07/08 02:23:21;;;;;;;;;;;;;;;16.10;100.00;96204.13;1053135;28;19914;-71
2021/07/08 02:23:52;;;;;;;;;;;;;;;16.09;100.00;96200.63;1053218;28;19951;-71
2021/07/08 02:24:22;;;;;;;;;;;;;;;16.10;100.00;96206.81;1053097;28;19912;-71
2021/07/08 02:24:52;;;;;;;;;;;;;;;16.11;100.00;96203.81;1053076;28;20369;-71
2021/07/08 02:25:22;;;;;;;;;;;;;;;16.11;100.00;96206.50;1053152;28;19959;-70
2021/07/08 02:25:53;;;;;;;;;;;;;;;16.13;100.00;96202.75;1053063;28;19935;-70
2021/07/08 02:26:23;;;;;;;;;;;;;;;16.13;100.00;96205.44;1052966;28;19912;-70
2021/07/08 02:26:53;;;;;;;;;;;;;;;16.13;100.00;96205.44;1052929;28;19912;-70
2021/07/08 02:27:23;;;;;;;;;;;;;;;16.11;100.00;96206.50;1052938;28;19912;-70
2021/07/08 02:27:54;;;;;;;;;;;;;;;16.13;100.00;96202.75;1050582;28;19966;-70
2021/07/08 02:28:24;;;;;;;;;;;;;;;16.13;100.00;96203.53;1048713;28;20281;-70
2021/07/08 02:28:54;;;;;;;;;;;;;;;16.14;100.00;96204.34;1048864;28;19912;-70
2021/07/08 02:29:26;;;;;;;;;;;;;;;16.14;100.00;96202.44;1044293;28;19920;-70
2021/07/08 02:29:56;;;;;;;;;;;;;;;16.14;100.00;96201.63;1044429;28;19920;-70
2021/07/08 02:30:26;;;;;;;;;;;;;;;16.15;100.00;96205.91;1044317;28;19941;-70
2021/07/08 02:30:57;;;;;;;;;;;;;;;16.15;100.00;96204.03;1044634;28;19916;-71
2021/07/08 02:31:27;;;;;;;;;;;;;;;16.14;100.00;96193.53;1048853;28;19919;-71
2021/07/08 02:31:57;;;;;;;;;;;;;;;16.14;100.00;96196.25;1048874;28;19957;-71
2021/07/08 02:32:28;;;;;;;;;;;;;;;16.16;100.00;96199.44;1048757;28;20015;-71
2021/07/08 02:32:58;;;;;;;;;;;;;;;16.13;100.00;96191.94;1048604;28;19920;-71
2021/07/08 02:33:28;;;;;;;;;;;;;;;16.11;100.00;96194.94;1048782;28;20386;-71
2021/07/08 02:33:58;;;;;;;;;;;;;;;16.11;100.00;96194.94;1048842;28;19920;-71
2021/07/08 02:34:29;;;;;;;;;;;;;;;16.09;100.00;96197.94;1048701;28;19951;-71
2021/07/08 02:34:59;;;;;;;;;;;;;;;16.10;100.00;96193.34;1048889;28;19966;-71
2021/07/08 02:35:30;;;;;;;;;;;;;;;16.11;100.00;96192.22;1048818;28;19914;-71
2021/07/08 02:36:00;;;;;;;;;;;;;;;16.09;100.00;96186.34;1048836;28;20362;-71
2021/07/08 02:36:30;;;;;;;;;;;;;;;16.09;100.00;96189.06;1048490;28;19916;-71
2021/07/08 02:37:00;;;;;;;;;;;;;;;16.06;100.00;96186.94;1048578;28;19912;-71